Duffau, Texas
Current Conditions -  °F | °C
As of 2:55 PM on Tuesday 25 Nov 2014 (Local Time) from KSEP Reporting Station
Clear Clear  
Wind Chill: 61°   Ceiling: Unl
Heat Index: 61°   Visibility: 10mi
Dew Point: 24°   Wind: 8mph
Humidity: 25%   Direction: 250°WSW
Pressure: 30.22"   Gusts: NA
Location:  31.981°N, 98.033°W
Report Text: KSEP 252055Z AUTO 25007KT 10SM CLR 16/M04 A3022 RMK AO2 T01601042
Loading
Personal Weather Stations






























Interactive Weather Map New forecast layout! Learn more

10-Day Weather Forecast

Advertisements
Track Severe Weather on mobile